createdAt,value
2018-11-05T00:01:37.695Z,99.90
2018-11-05T00:04:08.622Z,99.90
2018-11-05T00:06:36.368Z,99.90
2018-11-05T00:09:07.019Z,99.90
2018-11-05T00:11:34.531Z,99.90
2018-11-05T00:14:02.179Z,99.90
2018-11-05T00:16:29.735Z,99.90
2018-11-05T00:18:57.299Z,99.90
2018-11-05T00:21:24.915Z,99.90
2018-11-05T00:23:56.763Z,99.90
2018-11-05T00:26:25.078Z,99.90
2018-11-05T00:28:53.042Z,99.90
2018-11-05T00:31:22.853Z,99.90
2018-11-05T00:34:02.007Z,99.90
2018-11-05T00:36:35.733Z,99.90
2018-11-05T00:39:04.974Z,99.90
2018-11-05T00:41:40.399Z,99.90
2018-11-05T00:44:13.193Z,99.90
2018-11-05T00:46:44.181Z,99.90
2018-11-05T00:49:11.909Z,99.90
2018-11-05T00:51:45.397Z,99.90
2018-11-05T00:54:14.941Z,99.90
2018-11-05T00:56:47.168Z,99.90
2018-11-05T00:59:14.692Z,99.90
2018-11-05T01:01:48.921Z,99.90
2018-11-05T01:04:18.066Z,99.90
2018-11-05T01:06:53.326Z,99.90
2018-11-05T01:09:21.286Z,99.90
2018-11-05T01:11:50.464Z,99.90
2018-11-05T01:14:18.685Z,99.90
2018-11-05T01:16:46.413Z,99.90
2018-11-05T01:19:14.003Z,99.90
2018-11-05T01:21:41.669Z,99.90
2018-11-05T01:24:12.067Z,99.90
2018-11-05T01:26:39.733Z,99.90
2018-11-05T01:29:07.227Z,99.90
2018-11-05T01:31:42.878Z,99.90
2018-11-05T01:34:11.969Z,99.90
2018-11-05T01:36:46.131Z,99.90
2018-11-05T01:39:20.860Z,99.90
2018-11-05T01:41:54.319Z,99.90
2018-11-05T01:44:22.138Z,99.90
2018-11-05T01:46:49.955Z,99.90
2018-11-05T01:49:17.575Z,99.90
2018-11-05T01:51:45.866Z,99.90
2018-11-05T01:54:13.697Z,99.90
2018-11-05T01:56:41.287Z,99.90
2018-11-05T01:59:08.814Z,99.90
2018-11-05T02:01:36.663Z,99.90
2018-11-05T02:04:05.291Z,99.90
2018-11-05T02:06:32.981Z,99.90
2018-11-05T02:09:00.619Z,99.90
2018-11-05T02:11:28.177Z,99.90
2018-11-05T02:14:01.025Z,99.90
2018-11-05T02:16:28.791Z,99.90
2018-11-05T02:19:04.710Z,99.90
2018-11-05T02:21:42.715Z,99.90
2018-11-05T02:24:12.674Z,99.90
2018-11-05T02:26:40.175Z,99.90
2018-11-05T02:29:07.733Z,99.90
2018-11-05T02:31:35.811Z,99.90
2018-11-05T02:34:06.579Z,99.90
2018-11-05T02:36:34.312Z,99.90
2018-11-05T02:39:05.464Z,99.90
2018-11-05T02:41:33.167Z,99.90
2018-11-05T02:44:00.765Z,99.90
2018-11-05T02:46:32.304Z,99.90
2018-11-05T02:49:01.214Z,99.90
2018-11-05T02:51:28.804Z,99.90
2018-11-05T02:53:56.338Z,99.90
2018-11-05T02:56:25.179Z,99.90
2018-11-05T02:58:56.434Z,99.90
2018-11-05T03:01:25.073Z,99.90
2018-11-05T03:03:58.159Z,99.90
2018-11-05T03:06:25.739Z,99.90
2018-11-05T03:08:55.878Z,99.90
2018-11-05T03:11:30.137Z,99.90
2018-11-05T03:13:58.527Z,99.90
2018-11-05T03:16:31.318Z,99.90
2018-11-05T03:19:01.417Z,99.90
2018-11-05T03:21:29.096Z,99.90
2018-11-05T03:23:57.602Z,99.90
2018-11-05T03:26:26.593Z,99.90
2018-11-05T03:28:54.426Z,99.90
2018-11-05T03:31:22.229Z,99.90
2018-11-05T03:33:49.759Z,99.90
2018-11-05T03:36:17.446Z,99.90
2018-11-05T03:38:45.110Z,99.90
2018-11-05T03:41:13.270Z,99.90
2018-11-05T03:43:46.361Z,99.90
2018-11-05T03:46:14.335Z,99.90
2018-11-05T03:48:44.909Z,99.90
2018-11-05T03:51:16.571Z,99.90
2018-11-05T03:53:46.143Z,99.90
2018-11-05T03:56:18.293Z,99.90
2018-11-05T03:58:51.410Z,99.90
2018-11-05T04:01:21.882Z,99.90
2018-11-05T04:03:51.844Z,99.90
2018-11-05T04:06:19.559Z,99.90
2018-11-05T04:08:47.189Z,99.90
2018-11-05T04:11:19.404Z,99.90
2018-11-05T04:13:48.327Z,99.90
2018-11-05T04:16:19.876Z,99.90
2018-11-05T04:18:50.178Z,99.90
2018-11-05T04:21:17.799Z,99.90
2018-11-05T04:23:47.364Z,99.90
2018-11-05T04:26:17.435Z,99.90
2018-11-05T04:28:46.273Z,99.90
2018-11-05T04:31:17.037Z,99.90
2018-11-05T04:33:50.103Z,99.90
2018-11-05T04:36:21.934Z,99.90
2018-11-05T04:38:50.734Z,99.90
2018-11-05T04:41:22.096Z,99.90
2018-11-05T04:43:49.985Z,99.90
2018-11-05T04:46:17.678Z,99.90
2018-11-05T04:48:45.515Z,99.90
2018-11-05T04:51:13.622Z,99.90
2018-11-05T04:53:41.393Z,99.90
2018-11-05T04:56:09.088Z,99.90
2018-11-05T04:58:37.107Z,99.90
2018-11-05T05:01:04.811Z,99.90
2018-11-05T05:03:32.421Z,99.90
2018-11-05T05:05:59.968Z,99.90
2018-11-05T05:08:27.619Z,99.90
2018-11-05T05:10:56.079Z,99.90
2018-11-05T05:13:23.623Z,99.90
2018-11-05T05:15:51.241Z,99.90
2018-11-05T05:18:18.962Z,99.90
2018-11-05T05:20:46.730Z,99.90
2018-11-05T05:23:14.495Z,99.90
2018-11-05T05:25:42.183Z,99.90
2018-11-05T05:28:09.695Z,99.90
2018-11-05T05:30:37.235Z,99.90
2018-11-05T05:33:05.006Z,99.90
2018-11-05T05:35:32.802Z,99.90
2018-11-05T05:38:00.779Z,99.90
2018-11-05T05:40:28.552Z,99.90
2018-11-05T05:42:56.448Z,99.90
2018-11-05T05:45:24.056Z,99.90
2018-11-05T05:47:51.720Z,99.90
2018-11-05T05:50:21.685Z,99.90
2018-11-05T05:52:49.552Z,99.90
2018-11-05T05:55:17.213Z,99.90
2018-11-05T05:57:45.288Z,99.90
2018-11-05T06:00:16.385Z,99.90
2018-11-05T06:02:43.907Z,99.90
2018-11-05T06:05:12.603Z,99.90
2018-11-05T06:07:40.711Z,99.90
2018-11-05T06:10:09.890Z,99.90
2018-11-05T06:12:37.390Z,99.90
2018-11-05T06:15:06.840Z,99.90
2018-11-05T06:17:34.409Z,99.90
2018-11-05T06:20:01.938Z,99.90
2018-11-05T06:22:29.946Z,99.90
2018-11-05T06:24:58.110Z,99.90
2018-11-05T06:27:25.641Z,99.90
2018-11-05T06:29:53.266Z,99.90
2018-11-05T06:32:20.783Z,99.90
2018-11-05T06:34:48.369Z,99.90
2018-11-05T06:37:16.153Z,99.90
2018-11-05T06:39:45.952Z,99.90
2018-11-05T06:42:13.540Z,99.90
2018-11-05T06:44:41.279Z,99.90
2018-11-05T06:47:08.873Z,99.90
2018-11-05T06:49:36.415Z,99.90
2018-11-05T06:52:04.048Z,99.90
2018-11-05T06:54:31.833Z,99.90
2018-11-05T06:56:59.412Z,99.90
2018-11-05T06:59:27.049Z,99.90
2018-11-05T07:01:54.806Z,99.90
2018-11-05T07:04:22.364Z,99.90
2018-11-05T07:06:50.061Z,99.90
2018-11-05T07:09:18.024Z,99.90
2018-11-05T07:11:45.752Z,99.90
2018-11-05T07:14:13.408Z,99.90
2018-11-05T07:16:41.625Z,99.90
2018-11-05T07:19:09.520Z,99.90
2018-11-05T07:21:37.056Z,99.90
2018-11-05T07:24:04.715Z,99.90
2018-11-05T07:26:32.390Z,99.90
2018-11-05T07:29:00.336Z,99.90
2018-11-05T07:31:27.991Z,99.90
2018-11-05T07:33:55.947Z,99.90
2018-11-05T07:36:23.655Z,99.90
2018-11-05T07:38:52.579Z,99.90
2018-11-05T07:41:20.929Z,99.90
2018-11-05T07:43:48.737Z,99.90
2018-11-05T07:46:16.433Z,99.90
2018-11-05T07:48:44.577Z,99.90
2018-11-05T07:51:12.556Z,99.90
2018-11-05T07:53:40.420Z,99.90
2018-11-05T07:56:08.095Z,99.90
2018-11-05T07:58:36.341Z,99.90
2018-11-05T08:01:05.957Z,99.90
2018-11-05T08:03:33.852Z,99.90
2018-11-05T08:06:02.789Z,99.90
2018-11-05T08:08:30.615Z,99.90
2018-11-05T08:11:00.129Z,99.90
2018-11-05T08:13:30.648Z,99.90
2018-11-05T08:16:02.729Z,99.90
2018-11-05T08:18:30.596Z,99.90
2018-11-05T08:20:58.280Z,99.90
2018-11-05T08:23:26.094Z,99.90
2018-11-05T08:25:54.568Z,99.90
2018-11-05T08:28:22.502Z,99.90
2018-11-05T08:30:50.527Z,99.90
2018-11-05T08:33:18.254Z,99.90
2018-11-05T08:35:48.938Z,99.90
2018-11-05T08:38:17.116Z,99.90
2018-11-05T08:40:44.986Z,99.90
2018-11-05T08:43:12.900Z,99.90
2018-11-05T08:48:27.596Z,99.90
2018-11-05T08:50:55.843Z,99.90
2018-11-05T08:53:24.724Z,99.90
2018-11-05T08:55:56.245Z,99.90
2018-11-05T09:01:19.065Z,99.90
2018-11-05T09:03:51.220Z,99.90
2018-11-05T09:06:21.691Z,99.90
2018-11-05T09:08:53.514Z,99.90
2018-11-05T09:11:21.734Z,99.90
2018-11-05T09:13:48.935Z,99.90
2018-11-05T09:16:22.716Z,99.90
2018-11-05T09:18:51.936Z,99.90
2018-11-05T09:21:19.686Z,99.90
2018-11-05T09:23:47.415Z,99.90
2018-11-05T09:26:15.051Z,99.60
2018-11-05T09:28:42.709Z,98.90
2018-11-05T09:31:10.371Z,99.00
2018-11-05T09:33:37.996Z,98.70
2018-11-05T09:36:18.691Z,97.30
2018-11-05T09:38:46.451Z,96.30
2018-11-05T09:41:14.064Z,96.50
2018-11-05T09:43:41.868Z,96.70
2018-11-05T09:46:09.623Z,96.20
2018-11-05T09:48:41.132Z,96.60
2018-11-05T09:51:11.733Z,96.30
2018-11-05T09:53:41.695Z,95.10
2018-11-05T09:56:09.755Z,95.30
2018-11-05T09:58:37.976Z,94.70
2018-11-05T10:01:06.001Z,94.10
2018-11-05T10:03:38.350Z,94.30
2018-11-05T10:06:06.241Z,93.70
2018-11-05T10:08:33.856Z,91.70
2018-11-05T10:11:01.543Z,91.80
2018-11-05T10:13:29.132Z,91.40
2018-11-05T10:15:59.643Z,91.20
2018-11-05T10:35:19.606Z,89.20
2018-11-05T10:37:50.025Z,85.20
2018-11-05T10:40:19.695Z,83.70
2018-11-05T10:42:51.116Z,83.30
2018-11-05T10:45:20.957Z,81.50
2018-11-05T10:47:48.805Z,82.40
2018-11-05T10:50:17.615Z,81.50
2018-11-05T10:52:47.004Z,80.10
2018-11-05T10:55:17.930Z,80.30
2018-11-05T10:57:50.581Z,77.60
2018-11-05T11:03:11.442Z,76.80
2018-11-05T11:05:52.053Z,78.10
2018-11-05T11:08:23.308Z,77.90
2018-11-05T11:10:58.579Z,77.90
2018-11-05T11:13:28.782Z,77.20
2018-11-05T11:15:59.716Z,78.20
2018-11-05T11:18:31.751Z,78.90
2018-11-05T11:20:59.481Z,78.10
2018-11-05T11:23:27.255Z,77.70
2018-11-05T11:25:54.884Z,78.30
2018-11-05T11:28:22.566Z,78.90
2018-11-05T11:30:50.288Z,78.90
2018-11-05T11:33:27.161Z,78.10
2018-11-05T11:36:01.889Z,77.40
2018-11-05T11:38:38.738Z,77.30
2018-11-05T11:41:08.377Z,76.40
2018-11-05T11:43:41.612Z,73.90
2018-11-05T11:46:09.364Z,72.10
2018-11-05T11:48:36.995Z,71.60
2018-11-05T11:51:04.749Z,71.30
2018-11-05T11:53:32.401Z,71.40
2018-11-05T11:55:59.894Z,71.40
2018-11-05T11:58:27.520Z,71.10
2018-11-05T12:00:58.603Z,70.30
2018-11-05T12:03:28.263Z,69.60
2018-11-05T12:05:59.938Z,68.80
2018-11-05T12:08:28.038Z,67.50
2018-11-05T12:11:02.564Z,67.00
2018-11-05T12:13:40.012Z,67.80
2018-11-05T12:16:09.804Z,68.70
2018-11-05T12:18:37.374Z,68.00
2018-11-05T12:21:05.071Z,67.90
2018-11-05T12:23:33.314Z,65.90
2018-11-05T12:26:05.298Z,65.40
2018-11-05T12:28:40.450Z,65.50
2018-11-05T12:31:12.184Z,65.30
2018-11-05T12:33:39.965Z,64.90
2018-11-05T12:36:07.578Z,66.00
2018-11-05T12:38:35.844Z,66.40
2018-11-05T12:41:03.569Z,66.60
2018-11-05T12:43:34.473Z,67.90
2018-11-05T12:46:04.446Z,68.40
2018-11-05T12:48:35.337Z,68.30
2018-11-05T12:51:03.148Z,69.30
2018-11-05T12:53:30.755Z,68.60
2018-11-05T12:55:58.339Z,69.30
2018-11-05T12:58:25.872Z,69.80
2018-11-05T13:00:53.572Z,69.30
2018-11-05T13:03:21.334Z,69.80
2018-11-05T13:05:49.448Z,70.00
2018-11-05T13:08:17.428Z,69.70
2018-11-05T13:10:46.410Z,69.90
2018-11-05T13:13:16.166Z,70.30
2018-11-05T13:15:44.083Z,70.00
2018-11-05T13:18:14.972Z,70.50
2018-11-05T13:20:46.285Z,70.70
2018-11-05T13:23:19.136Z,71.30
2018-11-05T13:25:47.083Z,70.60
2018-11-05T13:28:21.331Z,71.40
2018-11-05T13:30:49.311Z,71.60
2018-11-05T13:33:18.983Z,72.30
2018-11-05T13:35:46.671Z,72.00
2018-11-05T13:38:17.363Z,72.90
2018-11-05T13:40:44.767Z,73.40
2018-11-05T13:43:12.502Z,73.40
2018-11-05T13:45:40.567Z,73.70
2018-11-05T13:48:08.393Z,74.10
2018-11-05T13:50:35.691Z,74.70
2018-11-05T13:53:03.284Z,75.40
2018-11-05T13:55:30.869Z,75.50
2018-11-05T13:57:58.775Z,76.70
2018-11-05T14:00:27.280Z,76.50
2018-11-05T14:02:54.877Z,76.90
2018-11-05T14:05:22.480Z,77.10
2018-11-05T14:07:50.133Z,77.60
2018-11-05T14:10:20.693Z,77.90
2018-11-05T14:12:48.799Z,78.40
2018-11-05T14:15:16.391Z,79.20
2018-11-05T14:17:44.829Z,79.40
2018-11-05T14:20:17.466Z,80.00
2018-11-05T14:22:45.330Z,80.40
2018-11-05T14:25:15.170Z,81.10
2018-11-05T14:27:44.130Z,81.20
2018-11-05T14:30:12.460Z,82.60
2018-11-05T14:32:41.701Z,83.50
2018-11-05T14:35:09.566Z,83.90
2018-11-05T14:37:37.190Z,82.90
2018-11-05T14:40:05.835Z,82.50
2018-11-05T14:42:33.687Z,82.10
2018-11-05T14:45:01.632Z,82.40
2018-11-05T14:47:29.560Z,82.10
2018-11-05T14:49:57.226Z,81.00
2018-11-05T14:52:24.858Z,80.90
2018-11-05T14:54:53.194Z,80.30
2018-11-05T14:57:20.965Z,81.10
2018-11-05T14:59:48.597Z,81.00
2018-11-05T15:02:21.977Z,80.90
2018-11-05T15:04:49.702Z,81.60
2018-11-05T15:07:17.368Z,82.40
2018-11-05T15:09:45.057Z,82.10
2018-11-05T15:12:12.821Z,83.10
2018-11-05T15:14:40.726Z,83.80
2018-11-05T15:17:08.407Z,84.60
2018-11-05T15:19:36.366Z,85.80
2018-11-05T15:22:03.722Z,86.00
2018-11-05T15:24:31.275Z,86.80
2018-11-05T15:26:59.725Z,87.20
2018-11-05T15:29:27.389Z,88.00
2018-11-05T15:31:55.007Z,88.90
2018-11-05T15:34:22.625Z,89.60
2018-11-05T15:36:50.383Z,90.10
2018-11-05T15:39:18.122Z,90.30
2018-11-05T15:41:45.648Z,90.50
2018-11-05T15:44:13.359Z,90.90
2018-11-05T15:46:41.265Z,91.10
2018-11-05T15:49:08.878Z,91.50
2018-11-05T15:51:36.852Z,92.20
2018-11-05T15:54:04.681Z,92.80
2018-11-05T15:56:32.551Z,93.50
2018-11-05T15:59:00.215Z,94.10
2018-11-05T16:01:27.922Z,94.60
2018-11-05T16:03:55.563Z,95.30
2018-11-05T16:06:23.403Z,95.90
2018-11-05T16:08:51.291Z,96.40
2018-11-05T16:11:19.049Z,96.60
2018-11-05T16:13:46.780Z,97.10
2018-11-05T16:16:14.648Z,97.10
2018-11-05T16:18:42.464Z,97.70
2018-11-05T16:21:10.011Z,98.30
2018-11-05T16:23:37.870Z,98.90
2018-11-05T16:26:06.175Z,99.40
2018-11-05T16:28:33.859Z,99.20
2018-11-05T16:31:01.494Z,99.60
2018-11-05T16:33:29.214Z,99.90
2018-11-05T16:35:57.268Z,99.90
2018-11-05T16:38:24.919Z,99.90
2018-11-05T16:40:53.156Z,99.90
2018-11-05T16:43:22.116Z,99.90
2018-11-05T16:45:50.113Z,99.90
2018-11-05T16:48:18.195Z,99.90
2018-11-05T16:50:46.384Z,99.90
2018-11-05T16:53:14.571Z,99.90
2018-11-05T16:55:42.682Z,99.90
2018-11-05T16:58:10.721Z,99.90
2018-11-05T17:00:38.861Z,99.90
2018-11-05T17:03:07.293Z,99.90
2018-11-05T17:05:35.376Z,99.90
2018-11-05T17:08:03.462Z,99.90
2018-11-05T17:10:31.468Z,99.90
2018-11-05T17:12:59.563Z,99.90
2018-11-05T17:15:27.539Z,99.90
2018-11-05T17:17:55.633Z,99.90
2018-11-05T17:20:23.802Z,99.90
2018-11-05T17:22:51.876Z,99.90
2018-11-05T17:25:20.089Z,99.90
2018-11-05T17:27:48.589Z,99.90
2018-11-05T17:30:20.062Z,99.90
2018-11-05T17:32:48.330Z,99.90
2018-11-05T17:35:16.764Z,99.90
2018-11-05T17:37:45.776Z,99.90
2018-11-05T17:40:15.620Z,99.90
2018-11-05T17:42:44.020Z,99.90
2018-11-05T17:45:13.822Z,99.90
2018-11-05T17:47:42.014Z,99.90
2018-11-05T17:50:13.880Z,99.90
2018-11-05T17:52:42.668Z,99.90
2018-11-05T17:55:12.185Z,99.90
2018-11-05T17:57:42.148Z,99.90
2018-11-05T18:00:13.289Z,99.90
2018-11-05T18:02:41.407Z,99.90
2018-11-05T18:05:09.528Z,99.90
2018-11-05T18:07:38.571Z,99.90
2018-11-05T18:10:07.300Z,99.90
2018-11-05T18:12:36.046Z,99.90
2018-11-05T18:15:05.699Z,99.90
2018-11-05T18:17:34.191Z,99.90
2018-11-05T18:20:02.826Z,99.90
2018-11-05T18:22:30.821Z,99.90
2018-11-05T18:24:59.052Z,99.90
2018-11-05T18:27:27.986Z,99.90
2018-11-05T18:29:56.155Z,99.90
2018-11-05T18:32:24.199Z,99.90
2018-11-05T18:34:52.649Z,99.90
2018-11-05T18:37:20.970Z,99.90
2018-11-05T18:39:48.990Z,99.90
2018-11-05T18:42:17.044Z,99.90
2018-11-05T18:44:45.287Z,99.90
2018-11-05T18:47:13.443Z,99.90
2018-11-05T18:49:41.666Z,99.90
2018-11-05T18:52:10.454Z,99.90
2018-11-05T18:54:39.510Z,99.90
2018-11-05T18:57:08.269Z,99.90
2018-11-05T18:59:36.795Z,99.90
2018-11-05T19:02:05.397Z,99.90
2018-11-05T19:04:33.477Z,99.90
2018-11-05T19:07:01.981Z,99.90
2018-11-05T19:09:30.216Z,99.90
2018-11-05T19:11:58.253Z,99.90
2018-11-05T19:14:26.304Z,99.90
2018-11-05T19:16:54.285Z,99.90
2018-11-05T19:19:22.803Z,99.90
2018-11-05T19:21:50.959Z,99.90
2018-11-05T19:24:19.395Z,99.90
2018-11-05T19:26:47.791Z,99.90
2018-11-05T19:29:16.255Z,99.90
2018-11-05T19:31:44.400Z,99.90
2018-11-05T19:34:12.549Z,99.90
2018-11-05T19:36:40.764Z,99.90
2018-11-05T19:39:10.576Z,99.90
2018-11-05T19:41:38.804Z,99.90
2018-11-05T19:44:07.985Z,99.90
2018-11-05T19:46:36.807Z,99.90
2018-11-05T19:49:08.331Z,99.90
2018-11-05T19:51:41.204Z,99.90
2018-11-05T19:54:12.467Z,99.90
2018-11-05T19:56:44.248Z,99.90
2018-11-05T19:59:13.857Z,99.90
2018-11-05T20:04:31.060Z,99.90
2018-11-05T20:09:46.546Z,99.90
2018-11-05T20:12:19.408Z,99.90
2018-11-05T20:14:50.995Z,99.90
2018-11-05T20:17:23.337Z,99.90
2018-11-05T20:19:57.490Z,99.90
2018-11-05T20:22:46.027Z,99.90
2018-11-05T20:25:14.039Z,99.90
2018-11-05T20:27:43.492Z,99.90
2018-11-05T20:30:15.800Z,99.90
2018-11-05T20:32:49.030Z,99.90
2018-11-05T20:35:19.941Z,99.90
2018-11-05T20:37:49.878Z,99.90
2018-11-05T20:40:23.239Z,99.90
2018-11-05T20:42:53.962Z,99.90
2018-11-05T20:45:24.501Z,99.90
2018-11-05T20:47:58.904Z,99.90
2018-11-05T20:50:27.435Z,99.90
2018-11-05T20:52:57.743Z,99.90
2018-11-05T20:55:26.733Z,99.90
2018-11-05T20:57:55.673Z,99.90
2018-11-05T21:00:23.652Z,99.90
2018-11-05T21:02:51.542Z,99.90
2018-11-05T21:05:20.659Z,99.90
2018-11-05T21:07:48.522Z,99.90
2018-11-05T21:10:24.301Z,99.90
2018-11-05T21:12:56.260Z,99.90
2018-11-05T21:15:24.693Z,99.90
2018-11-05T21:17:54.994Z,99.90
2018-11-05T21:20:23.485Z,99.90
2018-11-05T21:22:53.696Z,99.90
2018-11-05T21:25:25.650Z,99.90
2018-11-05T21:27:55.315Z,99.90
2018-11-05T21:30:23.528Z,99.90
2018-11-05T21:32:51.453Z,99.90
2018-11-05T21:35:21.145Z,99.90
2018-11-05T21:37:50.046Z,99.90
2018-11-05T21:40:21.582Z,99.90
2018-11-05T21:42:51.168Z,99.90
2018-11-05T21:45:19.022Z,99.90
2018-11-05T21:47:46.594Z,99.90
2018-11-05T21:50:15.860Z,99.90
2018-11-05T21:52:44.262Z,99.90
2018-11-05T21:55:11.897Z,99.90
2018-11-05T21:57:41.848Z,99.90
2018-11-05T22:00:18.458Z,99.90
2018-11-05T22:02:51.735Z,99.90
2018-11-05T22:05:19.514Z,99.90
2018-11-05T22:07:47.729Z,99.90
2018-11-05T22:10:15.345Z,99.90
2018-11-05T22:12:43.716Z,99.90
2018-11-05T22:15:12.478Z,99.90
2018-11-05T22:17:40.429Z,99.90
2018-11-05T22:20:09.619Z,99.90
2018-11-05T22:22:37.951Z,99.90
2018-11-05T22:25:05.748Z,99.90
2018-11-05T22:27:33.596Z,99.90
2018-11-05T22:30:01.497Z,99.90
2018-11-05T22:32:29.702Z,99.90
2018-11-05T22:34:58.710Z,99.90
2018-11-05T22:37:26.658Z,99.90
2018-11-05T22:39:54.266Z,99.90
2018-11-05T22:42:21.958Z,99.90
2018-11-05T22:44:49.597Z,99.90
2018-11-05T22:47:17.598Z,99.90
2018-11-05T22:49:45.967Z,99.90
2018-11-05T22:52:13.558Z,99.90
2018-11-05T22:54:41.579Z,99.90
2018-11-05T22:57:09.738Z,99.90
2018-11-05T22:59:37.625Z,99.90
2018-11-05T23:02:06.052Z,99.90
2018-11-05T23:04:33.713Z,99.90
2018-11-05T23:07:01.729Z,99.90
2018-11-05T23:09:29.664Z,99.90
2018-11-05T23:11:58.644Z,99.90
2018-11-05T23:14:27.966Z,99.90
2018-11-05T23:16:57.896Z,99.90
2018-11-05T23:19:25.632Z,99.90
2018-11-05T23:21:53.226Z,99.90
2018-11-05T23:24:22.771Z,99.90
2018-11-05T23:26:52.631Z,99.90
2018-11-05T23:29:20.563Z,99.90
2018-11-05T23:31:49.210Z,99.90
2018-11-05T23:34:16.805Z,99.90
2018-11-05T23:36:45.612Z,99.90
2018-11-05T23:39:14.055Z,99.90
2018-11-05T23:41:42.834Z,99.90
2018-11-05T23:44:10.920Z,99.90
2018-11-05T23:46:39.071Z,99.90
2018-11-05T23:49:06.543Z,99.90
2018-11-05T23:51:34.556Z,99.90
2018-11-05T23:54:02.253Z,99.90
2018-11-05T23:56:29.890Z,99.90
2018-11-05T23:58:58.212Z,99.90
